Time;durP1;ratioP1;P1;durP2;ratioP2;P2;SDS_P1;SDS_P2;PMS_P1;PMS_P2;Temp;Humidity;BMP_temperature;BMP_pressure;BME280_temperature;BME280_humidity;BME280_pressure;Samples;Min_cycle;Max_cycle;Signal;HPM_P1;HPM_P2
2021/11/10 00:00:51;;;;;;;4.40;3.43;;;14.40;99.30;;;15.47;52.72;102121.47;4973157;27;98873;-48
2021/11/10 00:03:17;;;;;;;4.40;3.53;;;14.50;99.70;;;15.52;52.47;102111.56;4971439;27;100461;-48
2021/11/10 00:05:43;;;;;;;4.10;3.20;;;14.50;97.70;;;15.50;52.63;102125.84;5015466;27;98946;-45
2021/11/10 00:08:09;;;;;;;4.63;3.30;;;14.40;98.60;;;15.52;52.67;102116.03;5011865;27;96795;-48
2021/11/10 00:10:36;;;;;;;3.83;3.13;;;14.50;99.90;;;15.54;52.48;102117.72;5000606;27;97064;-45
2021/11/10 00:13:21;;;;;;;3.80;3.40;;;14.60;98.90;;;15.59;52.38;102115.78;4993246;28;96906;-47
2021/11/10 00:15:49;;;;;;;5.00;3.83;;;14.70;98.60;;;15.58;52.15;102119.34;4994414;28;104526;-48
2021/11/10 00:18:16;;;;;;;5.77;4.10;;;14.60;97.90;;;15.55;52.39;102123.91;5008858;27;98634;-44
2021/11/10 00:20:46;;;;;;;5.80;3.53;;;14.50;98.00;;;15.51;52.42;102116.94;4995177;27;97573;-43
2021/11/10 00:23:13;;;;;;;4.53;3.57;;;14.40;98.90;;;15.46;52.32;102125.06;4994474;27;97737;-43
2021/11/10 00:25:39;;;;;;;3.33;2.90;;;14.30;98.20;;;15.46;52.54;102119.75;4997167;28;97536;-43
2021/11/10 00:28:05;;;;;;;3.93;3.17;;;14.40;99.30;;;15.39;52.89;102119.09;4996336;27;96748;-49
2021/11/10 00:30:32;;;;;;;6.03;3.80;;;14.30;99.50;;;15.35;52.72;102124.56;4993530;27;97136;-43
2021/11/10 00:32:58;;;;;;;2.93;2.70;;;14.20;98.30;;;15.36;53.08;102128.97;4998281;27;97808;-47
2021/11/10 00:35:24;;;;;;;3.80;3.00;;;14.30;99.90;;;15.40;52.98;102122.63;4992231;28;98285;-49
2021/11/10 00:37:50;;;;;;;3.80;3.00;;;14.40;99.90;;;15.40;52.81;102115.50;5002683;28;102669;-48
2021/11/10 00:40:16;;;;;;;4.00;3.47;;;14.50;98.90;;;15.41;52.66;102129.66;4996417;27;100231;-46
2021/11/10 00:42:43;;;;;;;3.63;3.10;;;14.50;97.50;;;15.43;52.56;102135.81;4988256;27;96889;-46
2021/11/10 00:45:09;;;;;;;3.40;2.90;;;14.40;97.50;;;15.42;52.66;102134.06;5002290;27;97473;-43
2021/11/10 00:47:35;;;;;;;3.83;3.47;;;14.40;99.90;;;15.42;52.41;102128.75;5026400;27;97346;-46
2021/11/10 00:50:03;;;;;;;4.23;3.40;;;14.40;98.70;;;15.43;52.14;102127.81;5007959;28;97245;-44
2021/11/10 00:52:29;;;;;;;4.37;3.40;;;14.40;98.40;;;15.44;52.15;102134.88;5006704;27;103033;-43
2021/11/10 00:54:54;;;;;;;4.00;3.23;;;14.40;97.90;;;15.40;52.54;102131.47;4998137;28;97097;-43
2021/11/10 00:57:20;;;;;;;3.47;3.13;;;14.40;97.90;;;15.39;52.74;102134.16;4988997;27;97008;-44
2021/11/10 00:59:47;;;;;;;3.50;3.20;;;14.40;98.60;;;15.38;52.63;102137.75;4996985;27;97638;-45
2021/11/10 01:02:12;;;;;;;3.43;3.13;;;14.40;98.80;;;15.40;52.56;102119.94;4991610;27;97767;-44
2021/11/10 01:04:39;;;;;;;4.30;3.20;;;14.50;98.60;;;15.43;52.40;102110.06;4994247;27;116851;-45
2021/11/10 01:07:06;;;;;;;4.67;3.30;;;14.50;98.00;;;15.45;52.31;102110.03;5000762;27;97178;-46
2021/11/10 01:09:39;;;;;;;3.23;2.90;;;14.40;98.10;;;15.41;52.57;102101.28;4993290;28;97292;-45
2021/11/10 01:12:08;;;;;;;4.00;3.30;;;14.40;97.90;;;15.36;52.61;102103.25;4990400;27;98805;-45
2021/11/10 01:14:36;;;;;;;3.47;3.13;;;14.30;98.60;;;15.36;52.65;102107.69;4992027;28;98856;-44
2021/11/10 01:17:03;;;;;;;4.00;3.43;;;14.20;98.70;;;15.32;52.67;102106.88;5004129;27;96823;-45
2021/11/10 01:19:29;;;;;;;4.03;2.73;;;14.30;98.20;;;15.32;52.42;102106.03;4986257;27;96996;-48
2021/11/10 01:21:55;;;;;;;5.20;3.17;;;14.30;98.80;;;15.35;52.39;102100.63;4990679;27;97519;-44
2021/11/10 01:24:21;;;;;;;4.47;2.90;;;14.40;98.20;;;15.34;52.64;102093.56;4987778;28;100153;-46
2021/11/10 01:26:47;;;;;;;4.83;3.10;;;14.40;98.60;;;15.36;52.70;102113.00;4995206;27;98097;-45
2021/11/10 01:29:14;;;;;;;4.40;3.50;;;14.40;98.20;;;15.37;52.49;102098.78;4994910;22;97729;-45
2021/11/10 01:31:40;;;;;;;3.37;2.97;;;14.40;98.70;;;15.38;52.28;102084.56;4968128;28;97857;-44
2021/11/10 01:34:09;;;;;;;2.97;2.67;;;14.40;98.50;;;15.38;52.36;102092.53;4968675;28;97495;-43
2021/11/10 01:36:37;;;;;;;4.07;3.23;;;14.40;98.80;;;15.39;52.47;102087.19;4967413;28;97034;-44
2021/11/10 01:39:08;;;;;;;3.93;3.10;;;14.40;99.10;;;15.44;52.46;102079.03;4949403;28;97938;-49
2021/11/10 01:41:48;;;;;;;4.30;3.07;;;14.50;98.40;;;15.47;52.38;102078.94;4959813;28;98909;-48
2021/11/10 01:44:25;;;;;;;3.90;3.37;;;14.50;97.60;;;15.46;52.13;102072.75;4961497;28;98337;-46
2021/11/10 01:46:54;;;;;;;4.07;3.17;;;14.50;98.00;;;15.47;52.43;102063.84;4993646;28;97258;-45
2021/11/10 01:49:20;;;;;;;3.83;3.03;;;14.50;98.80;;;15.54;52.03;102061.84;4974008;28;97094;-46
2021/11/10 01:51:55;;;;;;;3.23;2.67;;;14.70;99.90;;;15.59;51.62;102062.59;4958822;28;98410;-45
2021/11/10 01:54:24;;;;;;;4.60;2.90;;;14.80;98.80;;;15.64;51.72;102055.34;4976926;28;99172;-45
2021/11/10 01:56:52;;;;;;;3.27;2.87;;;14.80;99.00;;;15.68;51.61;102062.28;4968538;28;96957;-46
2021/11/10 01:59:46;;;;;;;3.17;2.80;;;14.80;98.40;;;15.70;51.33;102071.09;4959247;28;97105;-46
2021/11/10 02:02:24;;;;;;;3.23;2.90;;;14.80;97.60;;;15.59;51.59;102078.56;4990196;28;100288;-44
2021/11/10 02:04:51;;;;;;;2.90;2.60;;;14.50;97.20;;;15.50;52.03;102073.53;4959428;28;99009;-47
2021/11/10 02:07:20;;;;;;;4.03;2.80;;;14.40;99.50;;;15.44;51.83;102079.03;4948624;28;97038;-43
2021/11/10 02:09:48;;;;;;;4.20;2.80;;;14.40;98.30;;;15.40;51.92;102077.41;4950658;28;97010;-47
2021/11/10 02:12:16;;;;;;;3.10;2.70;;;14.30;99.20;;;15.40;51.98;102074.75;4973168;28;97673;-46
2021/11/10 02:14:42;;;;;;;3.77;3.00;;;14.40;98.90;;;15.40;52.22;102069.44;4964039;28;99269;-46
2021/11/10 02:17:16;;;;;;;2.80;2.50;;;14.50;99.90;;;15.50;52.17;102062.88;4955311;28;97389;-44
2021/11/10 02:19:42;;;;;;;3.43;3.13;;;14.70;99.90;;;15.57;51.44;102059.09;4953061;28;97275;-44
2021/11/10 02:22:08;;;;;;;3.50;2.97;;;14.80;96.70;;;15.50;51.93;102062.03;4949016;28;97280;-46
2021/11/10 02:24:37;;;;;;;2.97;2.67;;;14.60;97.20;;;15.46;51.86;102056.78;4970502;28;98206;-44
2021/11/10 02:27:03;;;;;;;4.73;3.10;;;14.40;99.20;;;15.46;52.11;102061.22;4978858;28;97002;-49
2021/11/10 02:29:31;;;;;;;2.90;2.60;;;14.50;99.00;;;15.48;51.83;102056.75;4974324;28;97687;-46
2021/11/10 02:31:58;;;;;;;3.43;3.00;;;14.60;99.40;;;15.55;51.73;102055.63;4977304;28;98688;-43
2021/11/10 02:34:25;;;;;;;3.13;2.50;;;14.80;99.60;;;15.61;51.35;102052.75;4978103;28;99012;-43
2021/11/10 02:36:51;;;;;;;2.70;2.50;;;14.90;98.90;;;15.65;51.39;102053.56;4960539;28;97252;-47
2021/11/10 02:39:22;;;;;;;3.27;2.43;;;14.90;98.10;;;15.70;51.22;102056.91;4970349;28;97924;-45
2021/11/10 02:41:49;;;;;;;3.20;2.83;;;14.90;97.40;;;15.66;51.41;102064.13;4991242;28;100140;-46
2021/11/10 02:44:18;;;;;;;2.90;2.60;;;14.80;96.50;;;15.62;51.43;102056.28;4980328;28;98269;-46
2021/11/10 02:46:47;;;;;;;3.30;2.63;;;14.70;97.60;;;15.57;51.34;102064.41;4974474;28;97054;-48
2021/11/10 02:49:14;;;;;;;2.50;2.23;;;14.60;97.00;;;15.52;51.54;102071.69;4963826;28;96963;-43
2021/11/10 02:52:05;;;;;;;3.13;2.73;;;14.40;99.10;;;15.50;51.85;102073.53;4961703;28;97643;-48
2021/11/10 02:54:36;;;;;;;2.97;2.43;;;14.50;97.70;;;15.45;51.81;102067.47;4948932;28;102725;-46
2021/11/10 02:57:06;;;;;;;3.63;2.60;;;14.40;98.50;;;15.42;51.90;102075.56;4959813;28;98760;-45
2021/11/10 02:59:32;;;;;;;2.37;2.17;;;14.40;98.80;;;15.40;51.80;102078.28;4964600;28;98153;-45
2021/11/10 03:02:00;;;;;;;3.37;2.60;;;14.40;98.80;;;15.46;51.84;102067.41;4967031;28;98580;-48
2021/11/10 03:04:45;;;;;;;2.80;2.43;;;14.50;99.90;;;15.54;51.65;102069.84;4949800;28;97107;-43
2021/11/10 03:07:12;;;;;;;3.07;2.73;;;14.70;99.90;;;15.59;51.55;102069.66;4979040;28;97686;-45
2021/11/10 03:09:39;;;;;;;2.87;2.47;;;14.90;99.10;;;15.69;51.39;102074.66;4985345;28;97281;-43
2021/11/10 03:12:09;;;;;;;2.90;2.30;;;15.00;98.70;;;15.70;51.08;102063.09;4968115;28;97589;-52
2021/11/10 03:14:37;;;;;;;3.37;2.50;;;15.00;98.10;;;15.69;51.29;102066.69;4948062;28;101367;-45
2021/11/10 03:17:07;;;;;;;3.00;2.50;;;14.90;98.60;;;15.70;51.21;102065.75;4946140;28;98336;-45
2021/11/10 03:19:33;;;;;;;3.77;3.03;;;14.90;97.90;;;15.69;51.33;102066.69;4974185;28;96902;-45
2021/11/10 03:22:00;;;;;;;2.57;2.13;;;14.80;97.60;;;15.66;51.41;102069.47;4970539;28;98468;-44
2021/11/10 03:24:26;;;;;;;2.60;2.40;;;14.70;98.90;;;15.69;51.21;102064.03;4973326;28;97402;-44
2021/11/10 03:26:52;;;;;;;4.17;2.67;;;14.80;99.00;;;15.71;50.93;102062.19;4990987;28;97249;-48
2021/11/10 03:29:19;;;;;;;3.00;2.70;;;14.90;97.90;;;15.71;51.09;102062.19;4973381;28;97046;-47
2021/11/10 03:31:44;;;;;;;2.73;2.50;;;14.80;97.90;;;15.70;51.23;102070.22;4987237;28;96951;-46
2021/11/10 03:34:11;;;;;;;2.80;2.53;;;14.80;97.60;;;15.67;50.98;102065.00;4958900;28;99813;-46
2021/11/10 03:36:39;;;;;;;3.83;3.30;;;14.60;97.90;;;15.64;51.30;102059.78;4970080;28;97168;-45
2021/11/10 03:39:10;;;;;;;4.70;3.30;;;14.60;97.00;;;15.53;51.25;102068.09;4982712;28;97378;-50
2021/11/10 03:41:36;;;;;;;3.43;2.90;;;14.40;96.70;;;15.37;51.71;102080.19;4961356;28;103085;-46
2021/11/10 03:44:04;;;;;;;3.50;3.20;;;14.10;97.40;;;15.22;52.14;102080.69;4968737;28;99414;-47
2021/11/10 03:46:30;;;;;;;3.70;3.03;;;13.90;97.90;;;15.16;52.31;102082.59;4961049;28;97221;-48
2021/11/10 03:48:56;;;;;;;2.80;2.60;;;13.80;98.80;;;15.14;52.53;102076.47;4968397;28;97045;-46
2021/11/10 03:51:22;;;;;;;3.00;2.63;;;13.90;99.60;;;15.15;52.53;102072.88;4971847;28;97100;-44
2021/11/10 03:53:49;;;;;;;3.80;2.70;;;14.00;99.70;;;15.15;52.33;102066.69;4967510;28;97650;-45
2021/11/10 03:56:16;;;;;;;4.00;3.10;;;14.00;98.80;;;15.14;52.27;102071.16;4983488;28;98945;-46
2021/11/10 03:58:42;;;;;;;3.50;2.90;;;14.00;98.20;;;15.12;52.35;102065.00;4972015;28;96807;-47
2021/11/10 04:01:08;;;;;;;3.23;2.57;;;14.00;97.90;;;15.11;52.58;102062.41;4966414;28;97140;-46
2021/11/10 04:03:35;;;;;;;4.93;3.47;;;13.90;98.50;;;15.09;52.29;102067.78;4991091;28;98171;-45
2021/11/10 04:06:01;;;;;;;3.73;2.60;;;14.00;98.30;;;15.08;52.45;102070.50;4983548;28;97508;-43
2021/11/10 04:08:28;;;;;;;4.07;2.83;;;13.90;98.50;;;15.05;52.51;102071.47;4969034;28;97125;-46
2021/11/10 04:10:55;;;;;;;4.30;2.80;;;13.90;99.50;;;15.08;52.55;102081.13;4983182;28;97087;-43
2021/11/10 04:13:21;;;;;;;3.13;2.80;;;14.00;99.60;;;15.10;52.29;102080.16;4973299;28;98675;-46
2021/11/10 04:15:48;;;;;;;3.20;2.90;;;14.10;99.20;;;15.13;52.22;102071.19;4986054;28;97095;-45
2021/11/10 04:18:14;;;;;;;3.13;2.57;;;14.10;98.80;;;15.13;52.27;102069.41;4979119;28;97400;-43
2021/11/10 04:20:40;;;;;;;2.40;2.20;;;14.10;99.20;;;15.14;52.26;102070.28;4970895;28;98464;-43
2021/11/10 04:23:06;;;;;;;4.10;3.27;;;14.10;98.40;;;15.15;52.13;102067.56;4966919;28;99928;-48
2021/11/10 04:25:32;;;;;;;2.93;2.53;;;14.10;97.40;;;15.15;52.44;102066.69;4962838;28;97317;-44
2021/11/10 04:27:58;;;;;;;4.63;3.70;;;14.10;99.90;;;15.16;51.93;102069.31;4969493;28;97196;-48
2021/11/10 04:30:24;;;;;;;3.07;2.57;;;14.10;97.10;;;15.16;52.00;102069.31;4982044;28;100045;-48
2021/11/10 04:32:49;;;;;;;3.10;2.80;;;14.10;97.40;;;15.12;52.17;102062.34;4966789;28;97987;-43
2021/11/10 04:35:16;;;;;;;3.43;2.80;;;14.10;97.70;;;15.11;52.39;102057.97;4973972;28;97133;-45
2021/11/10 04:37:43;;;;;;;4.57;3.17;;;14.00;99.30;;;15.13;52.15;102049.94;4962562;28;96981;-46
2021/11/10 04:40:12;;;;;;;3.77;3.10;;;14.10;97.70;;;15.12;52.16;102041.09;4984336;28;100289;-43
2021/11/10 04:42:40;;;;;;;3.10;2.43;;;14.00;97.90;;;15.05;52.34;102044.03;4989359;28;99522;-44
2021/11/10 04:45:12;;;;;;;4.43;2.80;;;13.90;97.70;;;14.97;52.66;102041.59;4960998;28;97032;-48
2021/11/10 04:47:38;;;;;;;3.57;2.90;;;13.70;97.90;;;14.94;52.63;102036.38;4944110;28;97401;-47
2021/11/10 04:50:07;;;;;;;3.93;3.17;;;13.70;99.50;;;14.96;52.40;102041.66;4980235;28;100075;-47
2021/11/10 04:52:37;;;;;;;4.23;2.77;;;13.80;98.20;;;14.97;52.41;102041.59;4953466;28;101941;-43
2021/11/10 04:55:06;;;;;;;3.27;2.33;;;13.80;98.20;;;14.95;52.57;102032.81;4950743;28;97069;-48
2021/11/10 04:57:32;;;;;;;3.83;2.90;;;13.80;99.50;;;14.95;52.55;102031.94;4951240;28;98122;-44
2021/11/10 04:59:58;;;;;;;4.10;3.07;;;13.80;99.00;;;14.98;52.58;102024.72;4947091;28;98795;-45
2021/11/10 05:02:24;;;;;;;4.13;3.03;;;13.90;97.70;;;14.97;52.67;102019.47;4960333;28;97412;-44
2021/11/10 05:04:52;;;;;;;2.90;2.43;;;13.80;97.70;;;14.95;52.66;102016.88;4976840;28;96981;-44
2021/11/10 05:07:18;;;;;;;3.27;2.97;;;13.70;98.30;;;14.92;52.55;102016.09;4980393;28;96849;-46
2021/11/10 05:09:45;;;;;;;3.33;2.60;;;13.70;98.30;;;14.86;52.90;102017.16;4972437;28;98544;-45
2021/11/10 05:12:11;;;;;;;3.17;2.87;;;13.60;98.60;;;14.83;52.77;102027.88;4959487;28;99345;-48
2021/11/10 05:14:37;;;;;;;3.17;2.57;;;13.60;99.70;;;14.86;52.95;102022.47;4945029;28;97219;-45
2021/11/10 05:17:03;;;;;;;4.57;3.20;;;13.70;99.30;;;14.91;52.65;102009.06;4970044;28;98325;-47
2021/11/10 05:19:29;;;;;;;2.87;2.60;;;13.70;98.20;;;14.90;52.40;102016.16;4957714;28;97567;-44
2021/11/10 05:21:55;;;;;;;3.07;2.70;;;13.80;98.20;;;14.91;52.53;102028.53;4968351;28;97634;-46
2021/11/10 05:24:22;;;;;;;3.07;2.77;;;13.80;99.20;;;14.92;52.59;102032.91;4956291;28;99979;-43
2021/11/10 05:26:49;;;;;;;5.90;3.27;;;13.80;99.50;;;14.97;52.39;102030.09;4972661;28;97004;-44
2021/11/10 05:29:15;;;;;;;4.47;3.30;;;13.90;98.10;;;14.96;51.99;102034.53;4970357;28;98651;-48
2021/11/10 05:31:41;;;;;;;3.70;2.80;;;13.80;97.70;;;14.95;52.14;102027.50;4976509;28;111217;-50
2021/11/10 05:34:08;;;;;;;6.97;3.87;;;13.80;99.20;;;14.93;52.25;102021.38;4978821;28;97284;-48
2021/11/10 05:36:34;;;;;;;4.80;2.97;;;13.80;97.30;;;14.86;52.43;102027.78;4992037;28;97057;-45
2021/11/10 05:39:00;;;;;;;2.97;2.77;;;13.70;99.00;;;14.81;52.46;102019.09;4987231;28;97341;-47
2021/11/10 05:41:26;;;;;;;6.23;3.50;;;13.60;98.50;;;14.82;52.54;102031.47;4983749;28;99387;-45
2021/11/10 05:43:52;;;;;;;2.93;2.60;;;13.60;97.70;;;14.82;52.65;102029.66;4973040;28;97581;-45
2021/11/10 05:46:18;;;;;;;3.13;2.70;;;13.70;99.50;;;14.83;52.47;102014.59;4972105;28;96790;-44
2021/11/10 05:48:44;;;;;;;5.27;2.73;;;13.70;99.00;;;14.79;52.73;102018.28;4991382;28;107174;-47
2021/11/10 05:51:09;;;;;;;3.97;2.60;;;13.60;98.30;;;14.78;52.84;102014.75;4969970;28;101848;-48
2021/11/10 05:53:38;;;;;;;3.70;3.10;;;13.70;99.90;;;14.84;52.52;102005.72;4988349;28;97730;-44
2021/11/10 05:56:04;;;;;;;5.73;5.13;;;13.80;98.40;;;14.83;52.47;102012.81;4970612;28;96753;-44
2021/11/10 05:58:32;;;;;;;8.47;5.10;;;13.70;96.70;;;14.79;52.40;102007.66;4990150;28;99734;-44
2021/11/10 06:01:00;;;;;;;4.03;3.30;;;13.50;97.10;;;14.69;52.66;102003.53;4985210;28;101228;-44
2021/11/10 06:03:27;;;;;;;6.87;3.23;;;13.30;97.50;;;14.61;52.72;102016.19;4984402;28;98291;-44
2021/11/10 06:05:54;;;;;;;3.77;2.87;;;13.30;99.80;;;14.63;52.91;102009.06;4988986;28;97401;-45
2021/11/10 06:08:20;;;;;;;5.03;3.33;;;13.40;99.90;;;14.70;52.64;101999.97;4987660;28;99494;-45
2021/11/10 06:10:47;;;;;;;4.63;4.00;;;13.60;98.60;;;14.70;52.55;102002.63;4989222;28;99360;-45
2021/11/10 06:13:13;;;;;;;5.70;3.77;;;13.60;97.40;;;14.63;52.73;102009.06;4974817;28;97155;-44
2021/11/10 06:15:39;;;;;;;4.80;3.60;;;13.50;97.60;;;14.56;53.17;102022.50;4978843;28;96998;-45
2021/11/10 06:18:07;;;;;;;5.00;3.90;;;13.30;97.90;;;14.56;52.94;102029.59;4970214;28;97808;-47
2021/11/10 06:20:35;;;;;;;3.23;2.90;;;13.30;99.00;;;14.59;52.89;102024.19;4986790;28;102540;-49
2021/11/10 06:23:02;;;;;;;4.83;3.03;;;13.40;99.80;;;14.63;53.06;102035.63;4947813;28;96875;-43
2021/11/10 06:25:28;;;;;;;4.90;3.70;;;13.40;98.90;;;14.62;52.78;102033.88;4984740;28;98517;-46
2021/11/10 06:27:54;;;;;;;6.03;4.13;;;13.40;97.60;;;14.59;52.93;102030.38;4968623;28;99630;-51
2021/11/10 06:30:20;;;;;;;4.17;3.33;;;13.30;97.80;;;14.58;52.84;102036.59;4988168;28;102253;-46
2021/11/10 06:32:48;;;;;;;4.90;3.40;;;13.30;99.00;;;14.59;52.95;102041.00;4975122;28;98474;-47
2021/11/10 06:35:14;;;;;;;4.40;3.47;;;13.40;99.60;;;14.61;52.84;102037.41;4970082;28;97523;-47
2021/11/10 06:37:40;;;;;;;7.00;4.80;;;13.40;97.90;;;14.53;52.92;102035.00;4971981;28;96811;-48
2021/11/10 06:40:08;;;;;;;4.00;3.60;;;13.20;97.60;;;14.54;53.09;102040.28;4984427;28;97068;-45
2021/11/10 06:42:34;;;;;;;3.50;3.13;;;13.20;98.90;;;14.53;53.26;102030.56;4976488;28;97184;-46
2021/11/10 06:45:00;;;;;;;5.40;4.10;;;13.30;99.20;;;14.52;52.99;102026.19;4976469;28;96822;-47
2021/11/10 06:47:27;;;;;;;6.67;3.60;;;13.20;98.20;;;14.53;52.96;102014.63;4982119;28;100655;-45
2021/11/10 06:49:54;;;;;;;6.33;4.17;;;13.20;98.50;;;14.49;52.52;102012.13;4989737;28;98415;-48
2021/11/10 06:52:20;;;;;;;5.50;3.80;;;13.10;97.50;;;14.39;52.98;102019.47;4969926;28;97255;-47
2021/11/10 06:54:50;;;;;;;3.43;3.03;;;13.00;99.20;;;14.38;53.51;102025.69;4992032;28;97391;-47
2021/11/10 06:57:16;;;;;;;4.70;3.73;;;13.00;99.50;;;14.42;53.45;102022.03;4986321;28;100258;-47
2021/11/10 06:59:42;;;;;;;5.23;3.27;;;13.10;99.90;;;14.48;53.41;102029.84;4992729;28;98654;-47
2021/11/10 07:02:08;;;;;;;5.93;3.77;;;13.30;99.90;;;14.53;53.17;102035.88;4970320;28;96979;-50
2021/11/10 07:04:35;;;;;;;4.90;3.27;;;13.30;99.10;;;14.58;53.20;102041.91;4966644;28;97109;-47
2021/11/10 07:07:01;;;;;;;3.97;3.23;;;13.40;99.60;;;14.66;52.98;102046.13;4971943;28;98878;-44
2021/11/10 07:09:27;;;;;;;5.60;3.97;;;13.50;99.70;;;14.68;52.60;102060.22;4969047;28;97104;-46
2021/11/10 07:11:52;;;;;;;4.70;3.57;;;13.50;98.00;;;14.67;52.95;102066.47;4988392;28;97279;-47
2021/11/10 07:14:18;;;;;;;3.13;2.70;;;13.50;99.20;;;14.72;52.54;102062.75;4970521;28;97517;-44
2021/11/10 07:16:44;;;;;;;3.47;2.70;;;13.50;99.90;;;14.82;52.19;102058.03;4987764;28;98742;-47
2021/11/10 07:19:10;;;;;;;4.50;3.70;;;13.80;99.90;;;14.95;51.94;102069.13;4956614;28;99273;-47
2021/11/10 07:21:37;;;;;;;2.97;2.67;;;14.00;98.30;;;15.01;51.93;102075.13;4952500;28;97668;-46
2021/11/10 07:24:03;;;;;;;5.97;4.63;;;14.00;98.70;;;15.04;51.34;102079.47;4976588;28;98402;-44
2021/11/10 07:26:29;;;;;;;5.43;4.70;;;13.90;97.20;;;15.02;51.26;102084.81;4945975;28;97089;-45
2021/11/10 07:28:56;;;;;;;5.77;3.70;;;13.80;96.80;;;14.92;51.54;102080.75;4966816;28;97039;-44
2021/11/10 07:31:22;;;;;;;4.00;3.10;;;13.70;97.60;;;14.84;51.93;102098.69;4949201;28;97213;-44
2021/11/10 07:33:48;;;;;;;4.03;3.33;;;13.50;98.80;;;14.84;52.25;102088.06;4958842;28;102829;-45
2021/11/10 07:36:14;;;;;;;3.97;3.00;;;13.60;99.90;;;14.90;51.93;102093.22;4949560;28;97338;-45
2021/11/10 07:38:40;;;;;;;4.60;3.30;;;13.80;99.90;;;14.99;51.68;102092.03;4951171;28;97403;-44
2021/11/10 07:41:16;;;;;;;5.73;3.97;;;14.00;99.00;;;15.06;51.21;102099.78;4980738;28;97997;-43
2021/11/10 07:43:43;;;;;;;5.87;3.67;;;14.10;97.30;;;15.09;51.29;102110.31;4963942;28;97416;-45
2021/11/10 07:46:17;;;;;;;5.53;3.37;;;14.10;99.00;;;15.20;51.02;102103.78;4976067;28;96777;-46
2021/11/10 07:48:46;;;;;;;3.93;3.20;;;14.30;99.90;;;15.33;50.70;102102.44;4960337;28;102282;-44
2021/11/10 07:51:12;;;;;;;3.30;2.93;;;14.60;99.20;;;15.51;50.01;102106.31;4961133;28;98912;-44
2021/11/10 07:53:38;;;;;;;4.30;2.93;;;14.90;98.30;;;15.60;50.07;102101.56;4931480;28;98896;-46
2021/11/10 07:56:05;;;;;;;4.47;2.90;;;15.00;97.30;;;15.66;49.67;102101.38;4930282;28;98664;-44
2021/11/10 07:58:31;;;;;;;4.87;3.07;;;15.10;98.00;;;15.73;49.44;102105.53;4927223;28;100350;-44
2021/11/10 08:00:57;;;;;;;3.23;2.93;;;15.10;97.00;;;15.72;49.65;102106.47;4935297;28;97233;-43
2021/11/10 08:03:23;;;;;;;4.33;3.30;;;15.00;97.40;;;15.68;49.82;102115.50;4946163;28;98512;-44
2021/11/10 08:05:48;;;;;;;4.93;2.83;;;14.90;97.30;;;15.69;49.80;102117.22;4965101;28;103703;-43
2021/11/10 08:08:14;;;;;;;4.27;2.90;;;14.90;98.90;;;15.75;49.40;102122.31;4926780;28;99956;-46
2021/11/10 08:10:40;;;;;;;3.03;2.73;;;15.10;98.20;;;15.88;49.22;102132.56;4951540;28;99345;-43
2021/11/10 08:13:06;;;;;;;4.20;2.90;;;15.30;97.40;;;15.93;48.90;102120.84;4949091;28;99714;-44
2021/11/10 08:15:32;;;;;;;4.03;3.00;;;15.40;96.30;;;15.97;48.99;102121.59;4952404;28;105004;-44
2021/11/10 08:17:58;;;;;;;3.40;2.70;;;15.40;97.20;;;16.11;48.66;102124.66;4951893;28;99548;-44
2021/11/10 08:20:24;;;;;;;4.90;2.90;;;15.70;97.60;;;16.17;48.68;102119.09;4947233;28;98394;-43
2021/11/10 08:22:50;;;;;;;3.50;2.80;;;15.80;97.60;;;16.26;48.29;102129.41;4953523;28;99380;-44
2021/11/10 08:25:18;;;;;;;3.20;2.60;;;15.90;97.10;;;16.41;47.85;102112.00;4945875;28;100210;-43
2021/11/10 08:27:45;;;;;;;3.13;2.83;;;16.20;97.10;;;16.49;47.99;102119.69;4968338;28;97656;-46
2021/11/10 08:30:17;;;;;;;3.97;2.93;;;16.20;96.20;;;16.47;47.75;102118.91;4948226;28;97746;-46
2021/11/10 08:32:44;;;;;;;4.17;3.27;;;16.20;94.90;;;16.44;48.03;102117.22;4948176;28;98561;-46
2021/11/10 08:35:10;;;;;;;3.83;3.50;;;16.00;97.00;;;16.47;47.76;102100.25;4947592;28;98991;-45
2021/11/10 08:37:37;;;;;;;4.53;2.73;;;16.10;95.80;;;16.49;47.95;102109.03;4952014;28;100435;-44
2021/11/10 08:40:08;;;;;;;3.63;2.87;;;16.10;96.40;;;16.41;48.12;102105.81;4963718;28;98212;-43
2021/11/10 08:42:34;;;;;;;2.90;2.60;;;15.90;96.40;;;16.30;48.33;102108.88;4949582;28;98925;-44
2021/11/10 08:45:26;;;;;;;4.40;3.20;;;15.60;95.50;;;16.23;48.58;102105.56;4919083;28;98052;-43
2021/11/10 08:47:57;;;;;;;3.20;2.90;;;15.50;97.60;;;16.18;48.84;102104.84;4936970;28;101750;-45
2021/11/10 08:50:26;;;;;;;3.10;2.80;;;15.50;97.90;;;16.17;48.49;102111.09;4940474;28;97467;-45
2021/11/10 08:52:53;;;;;;;2.83;2.60;;;15.50;97.90;;;16.31;48.19;102114.13;4967866;28;99421;-46
2021/11/10 08:55:19;;;;;;;3.13;2.80;;;15.80;97.20;;;16.44;47.97;102108.38;4949782;28;97142;-44
2021/11/10 08:57:47;;;;;;;10.33;6.83;;;16.10;96.20;;;16.23;44.71;102113.56;4943737;28;98226;-46
2021/11/10 09:00:21;;;;;;;7.77;6.27;;;15.80;92.20;;;16.09;47.43;102118.50;4928559;28;98678;-44
2021/11/10 09:02:47;;;;;;;4.23;3.30;;;15.40;94.30;;;15.80;48.58;102114.22;4931386;28;98494;-45
2021/11/10 09:05:14;;;;;;;5.03;3.67;;;15.00;96.50;;;15.63;49.40;102111.25;4955584;28;101094;-47
2021/11/10 09:07:40;;;;;;;2.83;2.50;;;14.70;95.90;;;15.65;49.70;102107.63;4952231;28;98406;-47
2021/11/10 09:10:12;;;;;;;3.50;2.73;;;14.80;98.90;;;15.75;49.73;102106.38;4949635;28;98354;-43
2021/11/10 09:12:39;;;;;;;5.80;4.83;;;15.00;98.80;;;15.85;49.28;102106.06;4939707;28;97113;-43
2021/11/10 09:15:10;;;;;;;14.47;10.67;;;15.30;96.00;;;15.73;46.34;102108.22;4968934;28;100311;-45
2021/11/10 09:17:37;;;;;;;3.63;2.97;;;15.10;94.10;;;15.64;50.00;102108.53;4949468;28;99951;-44
2021/11/10 09:20:09;;;;;;;8.60;5.93;;;14.90;97.30;;;15.46;46.69;102114.41;4953602;28;97986;-47
2021/11/10 09:22:36;;;;;;;5.73;4.37;;;14.70;94.80;;;15.36;50.21;102107.69;4934090;28;98379;-45
2021/11/10 09:25:02;;;;;;;3.93;3.40;;;14.50;96.70;;;15.36;50.48;102107.69;4966695;28;98794;-43
2021/11/10 09:27:28;;;;;;;3.33;2.60;;;14.40;98.70;;;15.38;50.60;102105.84;4951356;28;98447;-46
2021/11/10 09:29:54;;;;;;;3.70;3.13;;;14.50;98.40;;;15.64;49.91;102102.34;4957869;28;98491;-45
2021/11/10 09:32:20;;;;;;;3.30;2.90;;;15.00;98.20;;;15.80;49.78;102103.56;4954124;28;98571;-45
2021/11/10 09:34:46;;;;;;;4.50;4.10;;;15.30;98.20;;;15.92;49.30;102110.25;4952617;28;97985;-43
2021/11/10 09:37:13;;;;;;;4.33;2.80;;;15.50;97.40;;;15.97;49.15;102098.53;4950329;28;99609;-43
2021/11/10 09:39:41;;;;;;;2.90;2.60;;;15.60;97.40;;;16.22;48.88;102079.00;4944525;28;96910;-44
2021/11/10 09:42:08;;;;;;;3.67;3.27;;;15.90;97.40;;;16.45;48.12;102080.81;4955908;28;97277;-44
2021/11/10 09:44:34;;;;;;;3.47;2.70;;;16.30;97.10;;;16.69;47.61;102087.91;4949429;28;104819;-45
2021/11/10 09:47:03;;;;;;;3.50;3.20;;;16.60;96.30;;;16.90;47.22;102076.38;4952256;28;97612;-43
2021/11/10 09:49:29;;;;;;;3.83;2.90;;;16.90;95.70;;;17.08;46.70;102076.59;4949186;28;98113;-46
2021/11/10 09:51:55;;;;;;;3.77;2.70;;;17.20;95.00;;;17.24;46.14;102072.38;4957043;28;98503;-43
2021/11/10 09:54:20;;;;;;;3.90;3.17;;;17.30;94.90;;;17.32;45.63;102078.25;4938167;28;101562;-43
2021/11/10 09:56:47;;;;;;;3.10;2.80;;;17.40;94.40;;;17.39;45.80;102082.41;4953790;28;97403;-47
2021/11/10 09:59:13;;;;;;;3.00;2.50;;;17.50;94.60;;;17.49;45.46;102070.41;4966958;28;98379;-43
2021/11/10 10:01:40;;;;;;;3.33;2.77;;;17.60;94.40;;;17.61;44.98;102073.50;4956720;28;98602;-46
2021/11/10 10:04:08;;;;;;;3.63;2.93;;;17.70;94.20;;;17.68;45.13;102077.66;4955428;28;100136;-43
2021/11/10 10:06:35;;;;;;;3.10;2.30;;;17.80;94.10;;;17.70;45.14;102075.81;4953576;28;99742;-44
2021/11/10 10:09:02;;;;;;;3.83;3.20;;;17.80;94.10;;;17.75;44.84;102084.47;4972187;22;98602;-46
2021/11/10 10:11:29;;;;;;;3.47;2.70;;;17.80;93.40;;;17.77;44.87;102082.59;4994189;27;98996;-46
2021/11/10 10:13:56;;;;;;;3.57;2.83;;;17.80;94.00;;;17.85;44.56;102069.81;4999038;27;98916;-45